Santa Cruz, CA (95060)

11:37 AM PDT on August 26, 2016 (GMT -0700)
High St | | Change Station

Elev 141 ft 36.98 °N, 122.03 °W | Updated 1 minute ago

Light Rain
Light Rain Mist
66.2 °F
Feels Like 66.2 °F
N
1.7
Wind Variable Wind from WNW

Today
High -- | Low -- °F
--% Chance of Precip.
Yesterday
High -- | Low -- °F
Precip. -- in
Pressure 30.00 in
Visibility 6.0 miles
Clouds Mostly Cloudy 800 ft
Overcast 1400 ft
Dew Point 57 °F
Humidity 73%
Rainfall 0.04 in
Snow Depth Not available.
6:34 AM 7:44 PM
Waning Crescent, 32% visible
SPECI KWVI 261803Z AUTO 22005KT 6SM -RA BR BKN008 OVC014 16/15 A3000 RMK AO2 RAB00 CIG 006V012 P0000 T01560150
Pressure 30.00 in
Visibility 6.0 miles
Clouds Mostly Cloudy 800 ft
Overcast 1400 ft
Dew Point 57 °F
Humidity 73%
Rainfall 0.04 in
Snow Depth Not available.
6:34 AM 7:44 PM
Waning Crescent, 32% visible
SPECI KWVI 261803Z AUTO 22005KT 6SM -RA BR BKN008 OVC014 16/15 A3000 RMK AO2 RAB00 CIG 006V012 P0000 T01560150

10-Day Weather Forecast

Almanac

Astronomy

Aug. 26, 2016 Rise Set
Actual Time
Civil Twilight
Nautical Twilight
Astronomical Twilight
Moon
Length of Visible Light
Length of Day
Tomorrow will be .
, % of the Moon is Illuminated

Today's Extremes

State Highs State Lows

Community

WunderPhotos

Upload Photos

1,935,169 photos uploaded!

WunderBlog® & News

Nearby

Air Quality

  Air Quality AQ Index Pollutant
Not available.

Snow Depth

Station Depth Elevation

Earthquake Activity

City Distance Mag. Time & Date
Minimum magnitude displayed is 2.5.

Coastal Water Temperatures

Place Temperature

Stations

Nearby Weather Stations

Station Location Temp. Windchill Dew Point Humidity Wind Precip. Elev Updated Type
                   

Watches & Warnings

There are currently no watches in effect.